sensor_id;sensor_type;location;lat;lon;timestamp;temperature;humidity
24382;DHT22;12502;50.678;7.172;2023-06-22T01:07:34;20.90;99.90
24382;DHT22;12502;50.678;7.172;2023-06-22T01:12:38;20.80;99.90
24382;DHT22;12502;50.678;7.172;2023-06-22T01:17:42;20.90;99.90
24382;DHT22;12502;50.678;7.172;2023-06-22T01:28:04;20.80;99.90
24382;DHT22;12502;50.678;7.172;2023-06-22T01:33:10;20.80;99.90
24382;DHT22;12502;50.678;7.172;2023-06-22T01:38:12;20.80;99.90
24382;DHT22;12502;50.678;7.172;2023-06-22T01:43:14;20.80;99.90
24382;DHT22;12502;50.678;7.172;2023-06-22T01:48:17;20.80;99.90
24382;DHT22;12502;50.678;7.172;2023-06-22T01:53:20;20.60;99.90
24382;DHT22;12502;50.678;7.172;2023-06-22T01:58:22;20.60;99.90
24382;DHT22;12502;50.678;7.172;2023-06-22T02:03:30;20.50;99.90
24382;DHT22;12502;50.678;7.172;2023-06-22T02:08:36;20.60;99.90
24382;DHT22;12502;50.678;7.172;2023-06-22T02:13:39;20.50;99.90
24382;DHT22;12502;50.678;7.172;2023-06-22T02:18:48;20.50;99.90
24382;DHT22;12502;50.678;7.172;2023-06-22T02:23:52;20.40;99.90
24382;DHT22;12502;50.678;7.172;2023-06-22T02:28:53;20.40;99.90
24382;DHT22;12502;50.678;7.172;2023-06-22T02:33:56;20.40;99.90
24382;DHT22;12502;50.678;7.172;2023-06-22T02:38:58;20.50;99.90
24382;DHT22;12502;50.678;7.172;2023-06-22T02:44:02;20.40;99.90
24382;DHT22;12502;50.678;7.172;2023-06-22T02:49:04;20.40;99.90
24382;DHT22;12502;50.678;7.172;2023-06-22T02:54:06;20.40;99.90
24382;DHT22;12502;50.678;7.172;2023-06-22T02:59:07;20.30;99.90
24382;DHT22;12502;50.678;7.172;2023-06-22T03:04:09;20.20;99.90
24382;DHT22;12502;50.678;7.172;2023-06-22T03:09:11;20.20;99.90
24382;DHT22;12502;50.678;7.172;2023-06-22T03:14:12;20.30;99.90
24382;DHT22;12502;50.678;7.172;2023-06-22T03:19:14;20.20;99.90
24382;DHT22;12502;50.678;7.172;2023-06-22T03:24:15;20.10;99.90
24382;DHT22;12502;50.678;7.172;2023-06-22T03:29:17;20.20;99.90
24382;DHT22;12502;50.678;7.172;2023-06-22T03:34:19;20.10;99.90
24382;DHT22;12502;50.678;7.172;2023-06-22T03:39:20;20.10;99.90
24382;DHT22;12502;50.678;7.172;2023-06-22T03:44:22;20.20;99.90
24382;DHT22;12502;50.678;7.172;2023-06-22T03:49:23;20.10;99.90
24382;DHT22;12502;50.678;7.172;2023-06-22T03:54:25;20.10;99.90
24382;DHT22;12502;50.678;7.172;2023-06-22T03:59:27;20.20;99.90
24382;DHT22;12502;50.678;7.172;2023-06-22T04:04:28;20.20;99.90
24382;DHT22;12502;50.678;7.172;2023-06-22T04:09:30;20.10;99.90
24382;DHT22;12502;50.678;7.172;2023-06-22T04:14:32;20.00;99.90
24382;DHT22;12502;50.678;7.172;2023-06-22T04:19:33;20.10;99.90
24382;DHT22;12502;50.678;7.172;2023-06-22T04:24:35;20.10;99.90
24382;DHT22;12502;50.678;7.172;2023-06-22T04:29:37;20.20;99.90
24382;DHT22;12502;50.678;7.172;2023-06-22T04:34:39;20.30;99.90
24382;DHT22;12502;50.678;7.172;2023-06-22T04:39:42;20.30;99.90
24382;DHT22;12502;50.678;7.172;2023-06-22T04:44:43;20.10;99.90
24382;DHT22;12502;50.678;7.172;2023-06-22T04:49:45;20.20;99.90
24382;DHT22;12502;50.678;7.172;2023-06-22T04:54:47;20.20;99.90
24382;DHT22;12502;50.678;7.172;2023-06-22T04:59:49;20.20;99.90
24382;DHT22;12502;50.678;7.172;2023-06-22T05:04:51;20.20;99.90
24382;DHT22;12502;50.678;7.172;2023-06-22T05:09:53;20.30;99.90
24382;DHT22;12502;50.678;7.172;2023-06-22T05:14:55;20.50;99.90
24382;DHT22;12502;50.678;7.172;2023-06-22T05:19:57;20.60;99.90
24382;DHT22;12502;50.678;7.172;2023-06-22T05:24:58;20.70;99.90
24382;DHT22;12502;50.678;7.172;2023-06-22T05:30:00;20.90;99.90
24382;DHT22;12502;50.678;7.172;2023-06-22T05:35:02;21.00;99.90
24382;DHT22;12502;50.678;7.172;2023-06-22T05:40:04;21.10;99.90
24382;DHT22;12502;50.678;7.172;2023-06-22T05:45:06;21.20;99.90
24382;DHT22;12502;50.678;7.172;2023-06-22T05:50:08;21.30;99.90
24382;DHT22;12502;50.678;7.172;2023-06-22T05:55:13;21.40;99.90
24382;DHT22;12502;50.678;7.172;2023-06-22T06:00:17;21.40;99.90
24382;DHT22;12502;50.678;7.172;2023-06-22T06:05:18;21.50;99.90
24382;DHT22;12502;50.678;7.172;2023-06-22T06:10:20;21.70;99.90
24382;DHT22;12502;50.678;7.172;2023-06-22T06:15:22;21.80;99.90
24382;DHT22;12502;50.678;7.172;2023-06-22T06:20:25;21.80;99.90
24382;DHT22;12502;50.678;7.172;2023-06-22T06:25:27;22.00;99.90
24382;DHT22;12502;50.678;7.172;2023-06-22T06:30:29;22.00;99.90
24382;DHT22;12502;50.678;7.172;2023-06-22T06:35:31;22.10;99.90
24382;DHT22;12502;50.678;7.172;2023-06-22T06:40:33;22.10;99.90
24382;DHT22;12502;50.678;7.172;2023-06-22T06:45:35;22.10;99.90
24382;DHT22;12502;50.678;7.172;2023-06-22T06:50:37;22.20;99.90
24382;DHT22;12502;50.678;7.172;2023-06-22T06:55:38;22.30;99.90
24382;DHT22;12502;50.678;7.172;2023-06-22T07:00:40;22.30;99.90
24382;DHT22;12502;50.678;7.172;2023-06-22T07:05:41;22.30;99.90
24382;DHT22;12502;50.678;7.172;2023-06-22T07:10:43;22.40;99.90
24382;DHT22;12502;50.678;7.172;2023-06-22T07:15:45;22.50;99.90
24382;DHT22;12502;50.678;7.172;2023-06-22T07:20:46;22.50;99.90
24382;DHT22;12502;50.678;7.172;2023-06-22T07:25:48;22.50;99.90
24382;DHT22;12502;50.678;7.172;2023-06-22T07:30:50;22.70;99.90
24382;DHT22;12502;50.678;7.172;2023-06-22T07:35:52;22.80;99.90
24382;DHT22;12502;50.678;7.172;2023-06-22T07:40:54;22.80;99.90
24382;DHT22;12502;50.678;7.172;2023-06-22T07:45:56;22.80;99.90
24382;DHT22;12502;50.678;7.172;2023-06-22T07:50:57;22.80;99.90
24382;DHT22;12502;50.678;7.172;2023-06-22T07:55:59;23.10;99.90
24382;DHT22;12502;50.678;7.172;2023-06-22T08:01:01;23.30;99.90
24382;DHT22;12502;50.678;7.172;2023-06-22T08:06:03;23.50;99.90
24382;DHT22;12502;50.678;7.172;2023-06-22T08:11:05;23.50;99.90
24382;DHT22;12502;50.678;7.172;2023-06-22T08:16:07;23.80;99.90
24382;DHT22;12502;50.678;7.172;2023-06-22T08:21:09;24.00;99.90
24382;DHT22;12502;50.678;7.172;2023-06-22T08:26:10;24.00;99.90
24382;DHT22;12502;50.678;7.172;2023-06-22T08:31:12;24.20;99.90
24382;DHT22;12502;50.678;7.172;2023-06-22T08:36:15;24.20;99.90
24382;DHT22;12502;50.678;7.172;2023-06-22T08:41:17;24.60;99.90
24382;DHT22;12502;50.678;7.172;2023-06-22T08:46:19;24.60;99.90
24382;DHT22;12502;50.678;7.172;2023-06-22T08:51:24;24.90;99.90
24382;DHT22;12502;50.678;7.172;2023-06-22T08:56:26;24.90;99.90
24382;DHT22;12502;50.678;7.172;2023-06-22T09:01:27;24.90;99.90
24382;DHT22;12502;50.678;7.172;2023-06-22T09:06:29;25.10;99.90
24382;DHT22;12502;50.678;7.172;2023-06-22T09:11:32;25.20;99.90
24382;DHT22;12502;50.678;7.172;2023-06-22T09:16:34;25.20;99.90
24382;DHT22;12502;50.678;7.172;2023-06-22T09:21:36;25.80;99.90
24382;DHT22;12502;50.678;7.172;2023-06-22T09:26:37;26.10;99.90
24382;DHT22;12502;50.678;7.172;2023-06-22T09:31:39;26.10;99.90
24382;DHT22;12502;50.678;7.172;2023-06-22T09:36:41;26.40;99.90
24382;DHT22;12502;50.678;7.172;2023-06-22T09:41:43;26.40;99.90
24382;DHT22;12502;50.678;7.172;2023-06-22T09:46:44;26.50;99.90
24382;DHT22;12502;50.678;7.172;2023-06-22T09:51:46;26.20;99.90
24382;DHT22;12502;50.678;7.172;2023-06-22T09:56:47;26.00;99.90
24382;DHT22;12502;50.678;7.172;2023-06-22T10:01:49;25.90;99.90
24382;DHT22;12502;50.678;7.172;2023-06-22T10:06:51;25.90;99.90
24382;DHT22;12502;50.678;7.172;2023-06-22T10:11:52;25.80;99.90
24382;DHT22;12502;50.678;7.172;2023-06-22T10:16:54;25.80;99.90
24382;DHT22;12502;50.678;7.172;2023-06-22T10:21:58;25.60;99.90
24382;DHT22;12502;50.678;7.172;2023-06-22T10:27:01;25.40;99.90
24382;DHT22;12502;50.678;7.172;2023-06-22T10:32:03;25.20;99.90
24382;DHT22;12502;50.678;7.172;2023-06-22T10:37:04;25.00;99.90
24382;DHT22;12502;50.678;7.172;2023-06-22T10:42:07;24.60;99.90
24382;DHT22;12502;50.678;7.172;2023-06-22T10:47:09;24.10;99.90
24382;DHT22;12502;50.678;7.172;2023-06-22T10:52:10;23.80;99.90
24382;DHT22;12502;50.678;7.172;2023-06-22T10:57:12;23.20;99.90
24382;DHT22;12502;50.678;7.172;2023-06-22T11:02:13;22.60;99.90
24382;DHT22;12502;50.678;7.172;2023-06-22T11:07:15;22.10;99.90
24382;DHT22;12502;50.678;7.172;2023-06-22T11:12:17;21.90;99.90
24382;DHT22;12502;50.678;7.172;2023-06-22T11:17:18;21.90;99.90
24382;DHT22;12502;50.678;7.172;2023-06-22T11:22:20;22.00;99.90
24382;DHT22;12502;50.678;7.172;2023-06-22T11:27:21;21.90;99.90
24382;DHT22;12502;50.678;7.172;2023-06-22T11:32:23;22.00;99.90
24382;DHT22;12502;50.678;7.172;2023-06-22T11:37:26;22.30;99.90
24382;DHT22;12502;50.678;7.172;2023-06-22T11:42:28;22.40;99.90
24382;DHT22;12502;50.678;7.172;2023-06-22T11:47:30;22.60;99.90
24382;DHT22;12502;50.678;7.172;2023-06-22T11:52:33;22.60;99.90
24382;DHT22;12502;50.678;7.172;2023-06-22T11:57:38;22.40;99.90
24382;DHT22;12502;50.678;7.172;2023-06-22T12:02:40;22.40;99.90
24382;DHT22;12502;50.678;7.172;2023-06-22T12:07:42;22.50;99.90
24382;DHT22;12502;50.678;7.172;2023-06-22T12:12:43;22.40;99.90
24382;DHT22;12502;50.678;7.172;2023-06-22T12:17:45;22.20;99.90
24382;DHT22;12502;50.678;7.172;2023-06-22T12:22:46;22.10;99.90
24382;DHT22;12502;50.678;7.172;2023-06-22T12:27:49;22.30;99.90
24382;DHT22;12502;50.678;7.172;2023-06-22T12:32:50;22.20;99.90
24382;DHT22;12502;50.678;7.172;2023-06-22T12:37:52;22.30;99.90
24382;DHT22;12502;50.678;7.172;2023-06-22T12:42:54;22.70;99.90
24382;DHT22;12502;50.678;7.172;2023-06-22T12:47:56;22.80;99.90
24382;DHT22;12502;50.678;7.172;2023-06-22T12:52:57;22.90;99.90
24382;DHT22;12502;50.678;7.172;2023-06-22T12:57:59;23.10;99.90
24382;DHT22;12502;50.678;7.172;2023-06-22T13:03:01;23.20;99.90
24382;DHT22;12502;50.678;7.172;2023-06-22T13:08:02;23.30;99.90
24382;DHT22;12502;50.678;7.172;2023-06-22T13:13:04;23.60;99.90
24382;DHT22;12502;50.678;7.172;2023-06-22T13:18:06;23.70;99.90
24382;DHT22;12502;50.678;7.172;2023-06-22T13:23:08;23.70;99.90
24382;DHT22;12502;50.678;7.172;2023-06-22T13:28:09;23.80;99.90
24382;DHT22;12502;50.678;7.172;2023-06-22T13:33:28;23.90;99.90
24382;DHT22;12502;50.678;7.172;2023-06-22T13:38:30;23.90;99.90
24382;DHT22;12502;50.678;7.172;2023-06-22T13:43:33;24.20;99.90
24382;DHT22;12502;50.678;7.172;2023-06-22T13:48:34;24.00;99.90
24382;DHT22;12502;50.678;7.172;2023-06-22T13:53:36;24.10;99.90
24382;DHT22;12502;50.678;7.172;2023-06-22T13:58:38;23.90;99.90
24382;DHT22;12502;50.678;7.172;2023-06-22T14:03:39;24.00;99.90
24382;DHT22;12502;50.678;7.172;2023-06-22T14:08:41;23.70;99.90
24382;DHT22;12502;50.678;7.172;2023-06-22T14:13:43;23.80;99.90
24382;DHT22;12502;50.678;7.172;2023-06-22T14:18:44;23.60;99.90
24382;DHT22;12502;50.678;7.172;2023-06-22T14:23:46;23.30;99.90
24382;DHT22;12502;50.678;7.172;2023-06-22T14:28:51;23.20;99.90
24382;DHT22;12502;50.678;7.172;2023-06-22T14:33:53;22.90;99.90
24382;DHT22;12502;50.678;7.172;2023-06-22T14:38:54;22.40;99.90
24382;DHT22;12502;50.678;7.172;2023-06-22T14:43:56;22.10;99.90
24382;DHT22;12502;50.678;7.172;2023-06-22T14:48:58;22.10;99.90
24382;DHT22;12502;50.678;7.172;2023-06-22T14:53:59;21.90;99.90
24382;DHT22;12502;50.678;7.172;2023-06-22T14:59:01;21.90;99.90
24382;DHT22;12502;50.678;7.172;2023-06-22T15:04:03;21.80;99.90
24382;DHT22;12502;50.678;7.172;2023-06-22T15:09:04;21.30;99.90
24382;DHT22;12502;50.678;7.172;2023-06-22T15:14:06;21.30;99.90
24382;DHT22;12502;50.678;7.172;2023-06-22T15:19:08;21.20;99.90
24382;DHT22;12502;50.678;7.172;2023-06-22T15:24:11;21.20;99.90
24382;DHT22;12502;50.678;7.172;2023-06-22T15:29:12;21.30;99.90
24382;DHT22;12502;50.678;7.172;2023-06-22T15:34:14;21.30;99.90
24382;DHT22;12502;50.678;7.172;2023-06-22T15:39:16;21.30;99.90
24382;DHT22;12502;50.678;7.172;2023-06-22T15:44:18;21.40;99.90
24382;DHT22;12502;50.678;7.172;2023-06-22T15:49:19;21.20;99.90
24382;DHT22;12502;50.678;7.172;2023-06-22T15:54:21;21.10;99.90
24382;DHT22;12502;50.678;7.172;2023-06-22T15:59:23;21.10;99.90
24382;DHT22;12502;50.678;7.172;2023-06-22T16:04:25;21.00;99.90
24382;DHT22;12502;50.678;7.172;2023-06-22T16:09:26;20.90;99.90
24382;DHT22;12502;50.678;7.172;2023-06-22T16:14:28;20.80;99.90
24382;DHT22;12502;50.678;7.172;2023-06-22T16:19:30;20.60;99.90
24382;DHT22;12502;50.678;7.172;2023-06-22T16:24:31;20.50;99.90
24382;DHT22;12502;50.678;7.172;2023-06-22T16:29:33;20.50;99.90
24382;DHT22;12502;50.678;7.172;2023-06-22T16:34:34;20.60;99.90
24382;DHT22;12502;50.678;7.172;2023-06-22T16:39:36;20.60;99.90
24382;DHT22;12502;50.678;7.172;2023-06-22T16:44:38;20.60;99.90
24382;DHT22;12502;50.678;7.172;2023-06-22T16:49:39;20.80;99.90
24382;DHT22;12502;50.678;7.172;2023-06-22T16:54:41;20.90;99.90
24382;DHT22;12502;50.678;7.172;2023-06-22T17:00:00;20.90;99.90
24382;DHT22;12502;50.678;7.172;2023-06-22T17:05:01;21.00;99.90
24382;DHT22;12502;50.678;7.172;2023-06-22T17:10:03;20.90;99.90
24382;DHT22;12502;50.678;7.172;2023-06-22T17:15:08;21.00;99.90
24382;DHT22;12502;50.678;7.172;2023-06-22T17:20:10;21.10;99.90
24382;DHT22;12502;50.678;7.172;2023-06-22T17:25:13;21.00;99.90
24382;DHT22;12502;50.678;7.172;2023-06-22T17:30:16;21.00;99.90
24382;DHT22;12502;50.678;7.172;2023-06-22T17:35:19;21.00;99.90
24382;DHT22;12502;50.678;7.172;2023-06-22T17:40:22;21.00;99.90
24382;DHT22;12502;50.678;7.172;2023-06-22T17:45:24;21.10;99.90
24382;DHT22;12502;50.678;7.172;2023-06-22T17:50:26;21.20;99.90
24382;DHT22;12502;50.678;7.172;2023-06-22T17:55:28;21.20;99.90
24382;DHT22;12502;50.678;7.172;2023-06-22T18:00:30;21.10;99.90
24382;DHT22;12502;50.678;7.172;2023-06-22T18:05:35;21.10;99.90
24382;DHT22;12502;50.678;7.172;2023-06-22T18:10:37;21.10;99.90
24382;DHT22;12502;50.678;7.172;2023-06-22T18:15:39;21.10;99.90
24382;DHT22;12502;50.678;7.172;2023-06-22T18:20:41;21.10;99.90
24382;DHT22;12502;50.678;7.172;2023-06-22T18:25:43;21.10;99.90
24382;DHT22;12502;50.678;7.172;2023-06-22T18:30:46;21.10;99.90
24382;DHT22;12502;50.678;7.172;2023-06-22T18:35:48;21.10;99.90
24382;DHT22;12502;50.678;7.172;2023-06-22T18:40:50;21.10;99.90
24382;DHT22;12502;50.678;7.172;2023-06-22T18:45:52;21.20;99.90
24382;DHT22;12502;50.678;7.172;2023-06-22T18:50:55;21.20;99.90
24382;DHT22;12502;50.678;7.172;2023-06-22T18:56:11;21.20;99.90
24382;DHT22;12502;50.678;7.172;2023-06-22T19:01:14;21.20;99.90
24382;DHT22;12502;50.678;7.172;2023-06-22T19:11:37;21.20;99.90
24382;DHT22;12502;50.678;7.172;2023-06-22T19:16:38;21.00;99.90
24382;DHT22;12502;50.678;7.172;2023-06-22T19:21:40;20.60;99.90
24382;DHT22;12502;50.678;7.172;2023-06-22T19:26:50;20.30;99.90
24382;DHT22;12502;50.678;7.172;2023-06-22T19:31:51;20.10;99.90
24382;DHT22;12502;50.678;7.172;2023-06-22T19:36:53;19.90;99.90
24382;DHT22;12502;50.678;7.172;2023-06-22T19:41:55;19.70;99.90
24382;DHT22;12502;50.678;7.172;2023-06-22T19:46:57;19.50;99.90
24382;DHT22;12502;50.678;7.172;2023-06-22T19:52:05;19.30;99.90
24382;DHT22;12502;50.678;7.172;2023-06-22T19:57:06;19.30;99.90
24382;DHT22;12502;50.678;7.172;2023-06-22T20:02:08;19.10;99.90
24382;DHT22;12502;50.678;7.172;2023-06-22T20:07:10;19.00;99.90
24382;DHT22;12502;50.678;7.172;2023-06-22T20:12:23;18.80;99.90
24382;DHT22;12502;50.678;7.172;2023-06-22T20:17:30;18.70;99.90
24382;DHT22;12502;50.678;7.172;2023-06-22T20:22:44;18.60;99.90
24382;DHT22;12502;50.678;7.172;2023-06-22T20:27:46;18.50;99.90
24382;DHT22;12502;50.678;7.172;2023-06-22T20:32:52;18.30;99.90
24382;DHT22;12502;50.678;7.172;2023-06-22T20:37:54;18.20;99.90
24382;DHT22;12502;50.678;7.172;2023-06-22T20:43:00;17.80;99.90
24382;DHT22;12502;50.678;7.172;2023-06-22T20:48:02;17.80;99.90
24382;DHT22;12502;50.678;7.172;2023-06-22T20:53:04;17.70;99.90
24382;DHT22;12502;50.678;7.172;2023-06-22T20:58:07;17.50;99.90
24382;DHT22;12502;50.678;7.172;2023-06-22T21:03:08;17.40;99.90
24382;DHT22;12502;50.678;7.172;2023-06-22T21:08:12;17.50;99.90
24382;DHT22;12502;50.678;7.172;2023-06-22T21:13:14;17.50;99.90
24382;DHT22;12502;50.678;7.172;2023-06-22T21:18:15;17.60;99.90
24382;DHT22;12502;50.678;7.172;2023-06-22T21:23:17;17.70;99.90
24382;DHT22;12502;50.678;7.172;2023-06-22T21:28:20;17.70;99.90
24382;DHT22;12502;50.678;7.172;2023-06-22T21:33:22;17.90;99.90
24382;DHT22;12502;50.678;7.172;2023-06-22T21:38:24;17.90;99.90
24382;DHT22;12502;50.678;7.172;2023-06-22T21:43:26;17.90;99.90
24382;DHT22;12502;50.678;7.172;2023-06-22T21:48:28;17.90;99.90
24382;DHT22;12502;50.678;7.172;2023-06-22T21:53:29;17.90;99.90
24382;DHT22;12502;50.678;7.172;2023-06-22T21:58:31;17.80;99.90
24382;DHT22;12502;50.678;7.172;2023-06-22T22:03:32;17.90;99.90
24382;DHT22;12502;50.678;7.172;2023-06-22T22:08:34;17.90;99.90
24382;DHT22;12502;50.678;7.172;2023-06-22T22:13:36;17.80;99.90
24382;DHT22;12502;50.678;7.172;2023-06-22T22:18:38;17.90;99.90
24382;DHT22;12502;50.678;7.172;2023-06-22T22:23:39;17.90;99.90
24382;DHT22;12502;50.678;7.172;2023-06-22T22:28:41;18.00;99.90
24382;DHT22;12502;50.678;7.172;2023-06-22T22:33:43;18.00;99.90
24382;DHT22;12502;50.678;7.172;2023-06-22T22:38:44;18.00;99.90
24382;DHT22;12502;50.678;7.172;2023-06-22T22:43:46;18.10;99.90
24382;DHT22;12502;50.678;7.172;2023-06-22T22:48:47;18.10;99.90
24382;DHT22;12502;50.678;7.172;2023-06-22T22:53:49;18.10;99.90
24382;DHT22;12502;50.678;7.172;2023-06-22T22:58:51;18.20;99.90
24382;DHT22;12502;50.678;7.172;2023-06-22T23:03:53;18.10;99.90
24382;DHT22;12502;50.678;7.172;2023-06-22T23:08:57;18.10;99.90
24382;DHT22;12502;50.678;7.172;2023-06-22T23:13:59;18.10;99.90
24382;DHT22;12502;50.678;7.172;2023-06-22T23:19:00;18.10;99.90
24382;DHT22;12502;50.678;7.172;2023-06-22T23:24:02;18.10;99.90
24382;DHT22;12502;50.678;7.172;2023-06-22T23:29:04;18.10;99.90
24382;DHT22;12502;50.678;7.172;2023-06-22T23:34:06;18.10;99.90
24382;DHT22;12502;50.678;7.172;2023-06-22T23:39:07;18.00;99.90
24382;DHT22;12502;50.678;7.172;2023-06-22T23:44:09;18.00;99.90
24382;DHT22;12502;50.678;7.172;2023-06-22T23:49:11;18.00;99.90
24382;DHT22;12502;50.678;7.172;2023-06-22T23:54:12;18.10;99.90
24382;DHT22;12502;50.678;7.172;2023-06-22T23:59:17;18.10;99.90
